sensor_id;sensor_type;location;lat;lon;timestamp;temperature;humidity
3954;DHT22;1991;48.682;9.030;2022-09-23T00:00:30;8.60;99.90
3954;DHT22;1991;48.682;9.030;2022-09-23T00:02:55;8.60;99.90
3954;DHT22;1991;48.682;9.030;2022-09-23T00:05:21;8.60;99.90
3954;DHT22;1991;48.682;9.030;2022-09-23T00:07:47;8.60;99.90
3954;DHT22;1991;48.682;9.030;2022-09-23T00:10:13;8.40;99.90
3954;DHT22;1991;48.682;9.030;2022-09-23T00:12:39;8.40;99.90
3954;DHT22;1991;48.682;9.030;2022-09-23T00:15:05;8.40;99.90
3954;DHT22;1991;48.682;9.030;2022-09-23T00:17:31;8.30;99.90
3954;DHT22;1991;48.682;9.030;2022-09-23T00:19:57;8.30;99.90
3954;DHT22;1991;48.682;9.030;2022-09-23T00:22:22;8.30;99.90
3954;DHT22;1991;48.682;9.030;2022-09-23T00:24:48;8.30;99.90
3954;DHT22;1991;48.682;9.030;2022-09-23T00:27:14;8.30;99.90
3954;DHT22;1991;48.682;9.030;2022-09-23T00:29:40;8.30;99.90
3954;DHT22;1991;48.682;9.030;2022-09-23T00:32:05;8.30;99.90
3954;DHT22;1991;48.682;9.030;2022-09-23T00:34:31;8.30;99.90
3954;DHT22;1991;48.682;9.030;2022-09-23T00:36:56;8.20;99.90
3954;DHT22;1991;48.682;9.030;2022-09-23T00:39:25;8.20;99.90
3954;DHT22;1991;48.682;9.030;2022-09-23T00:41:51;8.20;99.90
3954;DHT22;1991;48.682;9.030;2022-09-23T00:47:04;8.20;99.90
3954;DHT22;1991;48.682;9.030;2022-09-23T00:49:30;8.20;99.90
3954;DHT22;1991;48.682;9.030;2022-09-23T00:52:04;8.20;99.90
3954;DHT22;1991;48.682;9.030;2022-09-23T00:54:31;8.10;99.90
3954;DHT22;1991;48.682;9.030;2022-09-23T00:56:58;8.20;99.90
3954;DHT22;1991;48.682;9.030;2022-09-23T00:59:25;8.10;99.90
3954;DHT22;1991;48.682;9.030;2022-09-23T01:01:54;8.10;99.90
3954;DHT22;1991;48.682;9.030;2022-09-23T01:04:22;8.10;99.90
3954;DHT22;1991;48.682;9.030;2022-09-23T01:06:49;8.10;99.90
3954;DHT22;1991;48.682;9.030;2022-09-23T01:09:15;8.00;99.90
3954;DHT22;1991;48.682;9.030;2022-09-23T01:15:41;8.00;99.90
3954;DHT22;1991;48.682;9.030;2022-09-23T01:34:24;7.80;99.90
3954;DHT22;1991;48.682;9.030;2022-09-23T01:37:02;7.80;99.90
3954;DHT22;1991;48.682;9.030;2022-09-23T01:39:39;7.70;99.90
3954;DHT22;1991;48.682;9.030;2022-09-23T01:42:16;7.80;99.90
3954;DHT22;1991;48.682;9.030;2022-09-23T01:47:38;7.70;99.90
3954;DHT22;1991;48.682;9.030;2022-09-23T01:50:13;7.70;99.90
3954;DHT22;1991;48.682;9.030;2022-09-23T01:53:03;7.80;99.90
3954;DHT22;1991;48.682;9.030;2022-09-23T01:55:34;7.70;99.90
3954;DHT22;1991;48.682;9.030;2022-09-23T01:58:11;7.80;99.90
3954;DHT22;1991;48.682;9.030;2022-09-23T02:00:42;7.80;99.90
3954;DHT22;1991;48.682;9.030;2022-09-23T02:03:15;7.80;99.90
3954;DHT22;1991;48.682;9.030;2022-09-23T02:05:51;7.80;99.90
3954;DHT22;1991;48.682;9.030;2022-09-23T02:08:33;7.70;99.90
3954;DHT22;1991;48.682;9.030;2022-09-23T02:11:05;7.60;99.90
3954;DHT22;1991;48.682;9.030;2022-09-23T02:13:46;7.60;99.90
3954;DHT22;1991;48.682;9.030;2022-09-23T02:16:32;7.50;99.90
3954;DHT22;1991;48.682;9.030;2022-09-23T02:21:45;7.50;99.90
3954;DHT22;1991;48.682;9.030;2022-09-23T02:24:16;7.40;99.90
3954;DHT22;1991;48.682;9.030;2022-09-23T02:26:54;7.40;99.90
3954;DHT22;1991;48.682;9.030;2022-09-23T02:29:35;7.40;99.90
3954;DHT22;1991;48.682;9.030;2022-09-23T02:32:47;7.40;99.90
3954;DHT22;1991;48.682;9.030;2022-09-23T02:38:11;7.30;99.90
3954;DHT22;1991;48.682;9.030;2022-09-23T02:40:59;7.30;99.90
3954;DHT22;1991;48.682;9.030;2022-09-23T02:46:04;7.30;99.90
3954;DHT22;1991;48.682;9.030;2022-09-23T02:48:37;7.30;99.90
3954;DHT22;1991;48.682;9.030;2022-09-23T02:51:05;7.30;99.90
3954;DHT22;1991;48.682;9.030;2022-09-23T02:53:32;7.20;99.90
3954;DHT22;1991;48.682;9.030;2022-09-23T02:56:15;7.20;99.90
3954;DHT22;1991;48.682;9.030;2022-09-23T02:58:42;7.20;99.90
3954;DHT22;1991;48.682;9.030;2022-09-23T03:01:34;7.20;99.90
3954;DHT22;1991;48.682;9.030;2022-09-23T03:04:15;7.10;99.90
3954;DHT22;1991;48.682;9.030;2022-09-23T03:07:04;7.10;99.90
3954;DHT22;1991;48.682;9.030;2022-09-23T03:12:28;7.00;99.90
3954;DHT22;1991;48.682;9.030;2022-09-23T03:18:52;7.00;99.90
3954;DHT22;1991;48.682;9.030;2022-09-23T03:20:48;7.00;99.90
3954;DHT22;1991;48.682;9.030;2022-09-23T03:23:20;6.90;99.90
3954;DHT22;1991;48.682;9.030;2022-09-23T03:25:51;6.90;99.90
3954;DHT22;1991;48.682;9.030;2022-09-23T03:28:20;6.90;99.90
3954;DHT22;1991;48.682;9.030;2022-09-23T03:30:50;6.90;99.90
3954;DHT22;1991;48.682;9.030;2022-09-23T03:33:17;6.90;99.90
3954;DHT22;1991;48.682;9.030;2022-09-23T03:35:51;6.90;99.90
3954;DHT22;1991;48.682;9.030;2022-09-23T03:38:39;6.90;99.90
3954;DHT22;1991;48.682;9.030;2022-09-23T03:41:09;6.90;99.90
3954;DHT22;1991;48.682;9.030;2022-09-23T03:43:37;6.90;99.90
3954;DHT22;1991;48.682;9.030;2022-09-23T03:46:03;6.90;99.90
3954;DHT22;1991;48.682;9.030;2022-09-23T03:48:28;6.80;99.90
3954;DHT22;1991;48.682;9.030;2022-09-23T03:50:54;6.80;99.90
3954;DHT22;1991;48.682;9.030;2022-09-23T03:53:19;6.90;99.90
3954;DHT22;1991;48.682;9.030;2022-09-23T03:55:46;6.90;99.90
3954;DHT22;1991;48.682;9.030;2022-09-23T03:58:12;6.80;99.90
3954;DHT22;1991;48.682;9.030;2022-09-23T04:00:38;6.90;99.90
3954;DHT22;1991;48.682;9.030;2022-09-23T04:03:04;6.90;99.90
3954;DHT22;1991;48.682;9.030;2022-09-23T04:05:29;6.90;99.90
3954;DHT22;1991;48.682;9.030;2022-09-23T04:07:55;6.90;99.90
3954;DHT22;1991;48.682;9.030;2022-09-23T04:10:21;6.90;99.90
3954;DHT22;1991;48.682;9.030;2022-09-23T04:12:47;6.90;99.90
3954;DHT22;1991;48.682;9.030;2022-09-23T04:15:13;6.80;99.90
3954;DHT22;1991;48.682;9.030;2022-09-23T04:17:38;6.80;99.90
3954;DHT22;1991;48.682;9.030;2022-09-23T04:20:04;6.80;99.90
3954;DHT22;1991;48.682;9.030;2022-09-23T04:22:32;6.80;99.90
3954;DHT22;1991;48.682;9.030;2022-09-23T04:24:58;6.80;99.90
3954;DHT22;1991;48.682;9.030;2022-09-23T04:27:24;6.70;99.90
3954;DHT22;1991;48.682;9.030;2022-09-23T04:29:49;6.70;99.90
3954;DHT22;1991;48.682;9.030;2022-09-23T04:32:15;6.70;99.90
3954;DHT22;1991;48.682;9.030;2022-09-23T04:34:41;6.70;99.90
3954;DHT22;1991;48.682;9.030;2022-09-23T04:37:06;6.60;99.90
3954;DHT22;1991;48.682;9.030;2022-09-23T04:39:32;6.60;99.90
3954;DHT22;1991;48.682;9.030;2022-09-23T04:41:58;6.60;99.90
3954;DHT22;1991;48.682;9.030;2022-09-23T04:44:23;6.60;99.90
3954;DHT22;1991;48.682;9.030;2022-09-23T04:46:52;6.60;99.90
3954;DHT22;1991;48.682;9.030;2022-09-23T04:49:18;6.50;99.90
3954;DHT22;1991;48.682;9.030;2022-09-23T04:51:43;6.50;99.90
3954;DHT22;1991;48.682;9.030;2022-09-23T04:54:10;6.50;99.90
3954;DHT22;1991;48.682;9.030;2022-09-23T04:56:36;6.50;99.90
3954;DHT22;1991;48.682;9.030;2022-09-23T04:59:02;6.50;99.90
3954;DHT22;1991;48.682;9.030;2022-09-23T05:01:30;6.50;99.90
3954;DHT22;1991;48.682;9.030;2022-09-23T05:03:58;6.50;99.90
3954;DHT22;1991;48.682;9.030;2022-09-23T05:06:28;6.50;99.90
3954;DHT22;1991;48.682;9.030;2022-09-23T05:08:55;6.50;99.90
3954;DHT22;1991;48.682;9.030;2022-09-23T05:11:22;6.50;99.90
3954;DHT22;1991;48.682;9.030;2022-09-23T05:13:49;6.50;99.90
3954;DHT22;1991;48.682;9.030;2022-09-23T05:16:16;6.50;99.90
3954;DHT22;1991;48.682;9.030;2022-09-23T05:18:42;6.50;99.90
3954;DHT22;1991;48.682;9.030;2022-09-23T05:21:09;6.50;99.90
3954;DHT22;1991;48.682;9.030;2022-09-23T05:23:36;6.50;99.90
3954;DHT22;1991;48.682;9.030;2022-09-23T05:26:22;6.60;99.90
3954;DHT22;1991;48.682;9.030;2022-09-23T05:28:49;6.60;99.90
3954;DHT22;1991;48.682;9.030;2022-09-23T05:31:17;6.60;99.90
3954;DHT22;1991;48.682;9.030;2022-09-23T05:33:46;6.60;99.90
3954;DHT22;1991;48.682;9.030;2022-09-23T05:36:13;6.70;99.90
3954;DHT22;1991;48.682;9.030;2022-09-23T05:38:41;6.70;99.90
3954;DHT22;1991;48.682;9.030;2022-09-23T05:41:09;6.80;99.90
3954;DHT22;1991;48.682;9.030;2022-09-23T05:43:35;6.90;99.90
3954;DHT22;1991;48.682;9.030;2022-09-23T05:48:37;7.20;99.90
3954;DHT22;1991;48.682;9.030;2022-09-23T05:51:04;7.30;99.90
3954;DHT22;1991;48.682;9.030;2022-09-23T05:53:33;7.40;99.90
3954;DHT22;1991;48.682;9.030;2022-09-23T05:55:59;7.50;99.90
3954;DHT22;1991;48.682;9.030;2022-09-23T05:58:25;7.60;99.90
3954;DHT22;1991;48.682;9.030;2022-09-23T06:00:52;7.80;99.90
3954;DHT22;1991;48.682;9.030;2022-09-23T06:03:21;8.00;99.90
3954;DHT22;1991;48.682;9.030;2022-09-23T06:05:51;8.30;99.90
3954;DHT22;1991;48.682;9.030;2022-09-23T06:08:17;8.40;99.90
3954;DHT22;1991;48.682;9.030;2022-09-23T06:10:44;8.60;99.90
3954;DHT22;1991;48.682;9.030;2022-09-23T06:13:10;8.90;99.90
3954;DHT22;1991;48.682;9.030;2022-09-23T06:15:37;9.00;99.90
3954;DHT22;1991;48.682;9.030;2022-09-23T06:18:03;9.20;99.90
3954;DHT22;1991;48.682;9.030;2022-09-23T06:20:29;9.40;99.90
3954;DHT22;1991;48.682;9.030;2022-09-23T06:23:05;9.50;99.90
3954;DHT22;1991;48.682;9.030;2022-09-23T06:25:32;9.70;99.90
3954;DHT22;1991;48.682;9.030;2022-09-23T06:27:58;10.00;99.90
3954;DHT22;1991;48.682;9.030;2022-09-23T06:30:24;10.20;99.90
3954;DHT22;1991;48.682;9.030;2022-09-23T06:32:53;10.40;99.90
3954;DHT22;1991;48.682;9.030;2022-09-23T06:35:20;10.60;99.90
3954;DHT22;1991;48.682;9.030;2022-09-23T06:37:46;10.80;99.90
3954;DHT22;1991;48.682;9.030;2022-09-23T06:40:12;11.00;99.90
3954;DHT22;1991;48.682;9.030;2022-09-23T06:42:41;11.10;99.90
3954;DHT22;1991;48.682;9.030;2022-09-23T06:45:08;11.30;99.90
3954;DHT22;1991;48.682;9.030;2022-09-23T06:47:39;11.50;99.90
3954;DHT22;1991;48.682;9.030;2022-09-23T06:50:06;11.80;99.90
3954;DHT22;1991;48.682;9.030;2022-09-23T06:52:32;12.10;99.90
3954;DHT22;1991;48.682;9.030;2022-09-23T06:54:57;12.20;99.90
3954;DHT22;1991;48.682;9.030;2022-09-23T06:57:23;12.30;99.90
3954;DHT22;1991;48.682;9.030;2022-09-23T06:59:49;12.50;99.90
3954;DHT22;1991;48.682;9.030;2022-09-23T07:02:15;12.60;99.90
3954;DHT22;1991;48.682;9.030;2022-09-23T07:04:40;12.80;99.90
3954;DHT22;1991;48.682;9.030;2022-09-23T07:07:06;13.10;99.70
3954;DHT22;1991;48.682;9.030;2022-09-23T07:09:31;13.30;99.30
3954;DHT22;1991;48.682;9.030;2022-09-23T07:11:57;13.40;97.60
3954;DHT22;1991;48.682;9.030;2022-09-23T07:14:24;13.50;97.80
3954;DHT22;1991;48.682;9.030;2022-09-23T07:16:50;13.70;97.00
3954;DHT22;1991;48.682;9.030;2022-09-23T07:19:17;13.90;96.00
3954;DHT22;1991;48.682;9.030;2022-09-23T07:21:43;14.00;95.70
3954;DHT22;1991;48.682;9.030;2022-09-23T07:24:08;14.20;95.50
3954;DHT22;1991;48.682;9.030;2022-09-23T07:26:43;14.30;95.70
3954;DHT22;1991;48.682;9.030;2022-09-23T07:29:12;14.40;94.00
3954;DHT22;1991;48.682;9.030;2022-09-23T07:31:38;14.40;93.30
3954;DHT22;1991;48.682;9.030;2022-09-23T07:34:04;14.70;93.50
3954;DHT22;1991;48.682;9.030;2022-09-23T07:36:30;14.90;93.50
3954;DHT22;1991;48.682;9.030;2022-09-23T07:38:58;15.10;93.20
3954;DHT22;1991;48.682;9.030;2022-09-23T07:41:28;15.20;92.10
3954;DHT22;1991;48.682;9.030;2022-09-23T07:43:58;15.40;90.80
3954;DHT22;1991;48.682;9.030;2022-09-23T07:46:30;15.30;90.60
3954;DHT22;1991;48.682;9.030;2022-09-23T07:48:56;15.30;91.10
3954;DHT22;1991;48.682;9.030;2022-09-23T07:51:27;15.40;91.00
3954;DHT22;1991;48.682;9.030;2022-09-23T07:53:54;15.40;89.40
3954;DHT22;1991;48.682;9.030;2022-09-23T07:56:23;15.40;90.30
3954;DHT22;1991;48.682;9.030;2022-09-23T07:58:49;15.60;90.90
3954;DHT22;1991;48.682;9.030;2022-09-23T08:01:34;15.70;89.30
3954;DHT22;1991;48.682;9.030;2022-09-23T08:04:21;15.70;89.00
3954;DHT22;1991;48.682;9.030;2022-09-23T08:06:55;15.70;88.90
3954;DHT22;1991;48.682;9.030;2022-09-23T08:09:25;15.90;88.90
3954;DHT22;1991;48.682;9.030;2022-09-23T08:11:51;16.00;87.50
3954;DHT22;1991;48.682;9.030;2022-09-23T08:14:17;16.00;88.10
3954;DHT22;1991;48.682;9.030;2022-09-23T08:16:44;16.10;88.30
3954;DHT22;1991;48.682;9.030;2022-09-23T08:19:10;16.10;88.70
3954;DHT22;1991;48.682;9.030;2022-09-23T08:21:37;16.20;87.60
3954;DHT22;1991;48.682;9.030;2022-09-23T08:24:04;16.20;87.80
3954;DHT22;1991;48.682;9.030;2022-09-23T08:26:30;16.40;87.50
3954;DHT22;1991;48.682;9.030;2022-09-23T08:28:58;16.50;86.40
3954;DHT22;1991;48.682;9.030;2022-09-23T08:31:24;16.50;85.90
3954;DHT22;1991;48.682;9.030;2022-09-23T08:33:54;16.50;85.20
3954;DHT22;1991;48.682;9.030;2022-09-23T08:36:20;16.20;85.70
3954;DHT22;1991;48.682;9.030;2022-09-23T08:38:46;16.40;85.50
3954;DHT22;1991;48.682;9.030;2022-09-23T08:42:01;16.60;85.40
3954;DHT22;1991;48.682;9.030;2022-09-23T08:44:15;16.80;85.70
3954;DHT22;1991;48.682;9.030;2022-09-23T08:46:50;16.90;84.10
3954;DHT22;1991;48.682;9.030;2022-09-23T08:49:32;17.00;83.70
3954;DHT22;1991;48.682;9.030;2022-09-23T08:52:05;17.10;84.20
3954;DHT22;1991;48.682;9.030;2022-09-23T08:54:33;17.30;83.20
3954;DHT22;1991;48.682;9.030;2022-09-23T08:57:01;17.20;83.70
3954;DHT22;1991;48.682;9.030;2022-09-23T08:59:41;17.00;82.70
3954;DHT22;1991;48.682;9.030;2022-09-23T09:02:26;16.80;84.00
3954;DHT22;1991;48.682;9.030;2022-09-23T09:05:00;16.80;84.20
3954;DHT22;1991;48.682;9.030;2022-09-23T09:07:32;16.80;83.00
3954;DHT22;1991;48.682;9.030;2022-09-23T09:12:44;17.60;82.70
3954;DHT22;1991;48.682;9.030;2022-09-23T09:15:25;18.10;81.80
3954;DHT22;1991;48.682;9.030;2022-09-23T09:18:04;18.60;78.60
3954;DHT22;1991;48.682;9.030;2022-09-23T09:20:42;18.90;75.80
3954;DHT22;1991;48.682;9.030;2022-09-23T09:26:29;19.80;73.00
3954;DHT22;1991;48.682;9.030;2022-09-23T09:29:02;20.00;71.10
3954;DHT22;1991;48.682;9.030;2022-09-23T09:31:33;20.50;70.90
3954;DHT22;1991;48.682;9.030;2022-09-23T09:34:36;20.30;67.90
3954;DHT22;1991;48.682;9.030;2022-09-23T09:39:47;21.30;65.40
3954;DHT22;1991;48.682;9.030;2022-09-23T09:42:29;22.20;63.60
3954;DHT22;1991;48.682;9.030;2022-09-23T09:45:01;23.50;61.80
3954;DHT22;1991;48.682;9.030;2022-09-23T09:50:10;31.80;48.00
3954;DHT22;1991;48.682;9.030;2022-09-23T09:52:36;34.90;42.20
3954;DHT22;1991;48.682;9.030;2022-09-23T09:57:38;37.10;35.20
3954;DHT22;1991;48.682;9.030;2022-09-23T10:03:13;40.10;31.90
3954;DHT22;1991;48.682;9.030;2022-09-23T10:08:30;41.70;30.10
3954;DHT22;1991;48.682;9.030;2022-09-23T10:13:23;43.40;28.80
3954;DHT22;1991;48.682;9.030;2022-09-23T10:15:49;43.50;28.60
3954;DHT22;1991;48.682;9.030;2022-09-23T10:21:09;42.70;28.20
3954;DHT22;1991;48.682;9.030;2022-09-23T10:23:42;39.00;28.00
3954;DHT22;1991;48.682;9.030;2022-09-23T10:26:09;35.30;30.00
3954;DHT22;1991;48.682;9.030;2022-09-23T10:28:48;32.50;32.70
3954;DHT22;1991;48.682;9.030;2022-09-23T10:31:32;30.70;35.30
3954;DHT22;1991;48.682;9.030;2022-09-23T10:36:29;28.40;37.40
3954;DHT22;1991;48.682;9.030;2022-09-23T10:39:07;28.20;40.20
3954;DHT22;1991;48.682;9.030;2022-09-23T10:42:15;28.00;38.20
3954;DHT22;1991;48.682;9.030;2022-09-23T10:45:18;27.40;39.50
3954;DHT22;1991;48.682;9.030;2022-09-23T10:48:14;27.00;38.90
3954;DHT22;1991;48.682;9.030;2022-09-23T10:50:47;26.20;40.80
3954;DHT22;1991;48.682;9.030;2022-09-23T10:53:45;26.00;40.70
3954;DHT22;1991;48.682;9.030;2022-09-23T10:56:29;26.00;41.60
3954;DHT22;1991;48.682;9.030;2022-09-23T10:59:23;26.10;40.80
3954;DHT22;1991;48.682;9.030;2022-09-23T11:02:02;26.00;42.10
3954;DHT22;1991;48.682;9.030;2022-09-23T11:07:44;26.30;41.10
3954;DHT22;1991;48.682;9.030;2022-09-23T11:27:13;25.10;43.70
3954;DHT22;1991;48.682;9.030;2022-09-23T11:30:03;25.20;43.90
3954;DHT22;1991;48.682;9.030;2022-09-23T11:35:33;24.40;45.00
3954;DHT22;1991;48.682;9.030;2022-09-23T11:38:04;24.30;46.10
3954;DHT22;1991;48.682;9.030;2022-09-23T11:40:37;24.90;46.90
3954;DHT22;1991;48.682;9.030;2022-09-23T11:43:25;25.50;44.70
3954;DHT22;1991;48.682;9.030;2022-09-23T11:46:01;25.40;43.10
3954;DHT22;1991;48.682;9.030;2022-09-23T11:48:40;24.70;44.60
3954;DHT22;1991;48.682;9.030;2022-09-23T11:51:11;24.00;45.90
3954;DHT22;1991;48.682;9.030;2022-09-23T11:59:15;23.40;48.80
3954;DHT22;1991;48.682;9.030;2022-09-23T12:01:50;23.90;46.70
3954;DHT22;1991;48.682;9.030;2022-09-23T12:04:38;23.80;46.60
3954;DHT22;1991;48.682;9.030;2022-09-23T12:09:57;23.40;47.20
3954;DHT22;1991;48.682;9.030;2022-09-23T12:12:36;23.00;47.90
3954;DHT22;1991;48.682;9.030;2022-09-23T12:25:45;23.10;49.50
3954;DHT22;1991;48.682;9.030;2022-09-23T12:28:24;23.50;48.30
3954;DHT22;1991;48.682;9.030;2022-09-23T12:30:53;23.70;47.70
3954;DHT22;1991;48.682;9.030;2022-09-23T12:35:53;23.70;47.50
3954;DHT22;1991;48.682;9.030;2022-09-23T12:38:23;23.40;49.30
3954;DHT22;1991;48.682;9.030;2022-09-23T12:40:53;22.90;49.50
3954;DHT22;1991;48.682;9.030;2022-09-23T12:43:33;22.70;50.10
3954;DHT22;1991;48.682;9.030;2022-09-23T12:46:15;22.60;49.60
3954;DHT22;1991;48.682;9.030;2022-09-23T12:51:23;22.40;49.50
3954;DHT22;1991;48.682;9.030;2022-09-23T13:01:40;22.70;49.30
3954;DHT22;1991;48.682;9.030;2022-09-23T13:04:45;22.50;50.10
3954;DHT22;1991;48.682;9.030;2022-09-23T13:07:33;22.20;49.30
3954;DHT22;1991;48.682;9.030;2022-09-23T13:12:34;21.80;50.60
3954;DHT22;1991;48.682;9.030;2022-09-23T13:15:04;21.80;51.50
3954;DHT22;1991;48.682;9.030;2022-09-23T13:17:38;21.80;53.30
3954;DHT22;1991;48.682;9.030;2022-09-23T13:25:26;22.20;52.00
3954;DHT22;1991;48.682;9.030;2022-09-23T13:27:55;22.10;52.50
3954;DHT22;1991;48.682;9.030;2022-09-23T13:30:23;21.90;53.70
3954;DHT22;1991;48.682;9.030;2022-09-23T13:33:04;21.90;54.10
3954;DHT22;1991;48.682;9.030;2022-09-23T13:35:34;21.80;53.60
3954;DHT22;1991;48.682;9.030;2022-09-23T13:38:09;21.70;52.30
3954;DHT22;1991;48.682;9.030;2022-09-23T13:40:35;21.50;53.80
3954;DHT22;1991;48.682;9.030;2022-09-23T13:43:11;21.50;53.70
3954;DHT22;1991;48.682;9.030;2022-09-23T13:45:39;21.60;54.90
3954;DHT22;1991;48.682;9.030;2022-09-23T13:48:12;21.70;54.60
3954;DHT22;1991;48.682;9.030;2022-09-23T13:50:44;21.60;54.60
3954;DHT22;1991;48.682;9.030;2022-09-23T13:53:18;21.90;54.60
3954;DHT22;1991;48.682;9.030;2022-09-23T13:55:44;21.90;53.90
3954;DHT22;1991;48.682;9.030;2022-09-23T13:58:21;22.00;54.10
3954;DHT22;1991;48.682;9.030;2022-09-23T14:00:49;22.10;54.30
3954;DHT22;1991;48.682;9.030;2022-09-23T14:03:37;22.10;53.80
3954;DHT22;1991;48.682;9.030;2022-09-23T14:06:12;22.20;53.60
3954;DHT22;1991;48.682;9.030;2022-09-23T14:08:49;22.50;54.20
3954;DHT22;1991;48.682;9.030;2022-09-23T14:11:16;22.60;52.60
3954;DHT22;1991;48.682;9.030;2022-09-23T14:13:44;22.60;53.20
3954;DHT22;1991;48.682;9.030;2022-09-23T14:16:12;22.40;53.90
3954;DHT22;1991;48.682;9.030;2022-09-23T14:18:45;22.20;53.80
3954;DHT22;1991;48.682;9.030;2022-09-23T14:21:30;22.10;53.90
3954;DHT22;1991;48.682;9.030;2022-09-23T14:26:51;21.60;54.50
3954;DHT22;1991;48.682;9.030;2022-09-23T14:29:22;21.40;55.00
3954;DHT22;1991;48.682;9.030;2022-09-23T14:31:57;21.20;56.20
3954;DHT22;1991;48.682;9.030;2022-09-23T14:40:25;20.70;57.30
3954;DHT22;1991;48.682;9.030;2022-09-23T14:43:05;20.70;57.80
3954;DHT22;1991;48.682;9.030;2022-09-23T14:45:38;20.60;58.20
3954;DHT22;1991;48.682;9.030;2022-09-23T14:48:13;20.60;58.10
3954;DHT22;1991;48.682;9.030;2022-09-23T14:50:56;20.50;58.40
3954;DHT22;1991;48.682;9.030;2022-09-23T14:58:47;20.10;58.20
3954;DHT22;1991;48.682;9.030;2022-09-23T15:04:42;19.70;59.50
3954;DHT22;1991;48.682;9.030;2022-09-23T15:07:16;19.60;60.10
3954;DHT22;1991;48.682;9.030;2022-09-23T15:09:43;19.50;61.30
3954;DHT22;1991;48.682;9.030;2022-09-23T15:12:14;19.40;61.70
3954;DHT22;1991;48.682;9.030;2022-09-23T15:14:42;19.30;61.40
3954;DHT22;1991;48.682;9.030;2022-09-23T15:19:56;19.40;61.80
3954;DHT22;1991;48.682;9.030;2022-09-23T15:22:23;19.50;62.30
3954;DHT22;1991;48.682;9.030;2022-09-23T15:24:51;19.40;61.70
3954;DHT22;1991;48.682;9.030;2022-09-23T15:27:31;19.30;61.10
3954;DHT22;1991;48.682;9.030;2022-09-23T15:30:17;19.20;61.70
3954;DHT22;1991;48.682;9.030;2022-09-23T15:32:44;19.20;62.00
3954;DHT22;1991;48.682;9.030;2022-09-23T15:35:12;19.10;62.70
3954;DHT22;1991;48.682;9.030;2022-09-23T15:37:40;19.00;63.60
3954;DHT22;1991;48.682;9.030;2022-09-23T15:42:45;18.70;64.40
3954;DHT22;1991;48.682;9.030;2022-09-23T15:45:25;18.50;64.60
3954;DHT22;1991;48.682;9.030;2022-09-23T15:47:51;18.40;65.60
3954;DHT22;1991;48.682;9.030;2022-09-23T15:50:17;18.30;66.30
3954;DHT22;1991;48.682;9.030;2022-09-23T15:52:43;18.20;66.90
3954;DHT22;1991;48.682;9.030;2022-09-23T15:55:17;18.20;67.80
3954;DHT22;1991;48.682;9.030;2022-09-23T15:57:46;18.20;67.10
3954;DHT22;1991;48.682;9.030;2022-09-23T16:00:13;18.00;67.30
3954;DHT22;1991;48.682;9.030;2022-09-23T16:02:40;18.00;68.50
3954;DHT22;1991;48.682;9.030;2022-09-23T16:05:21;17.90;68.50
3954;DHT22;1991;48.682;9.030;2022-09-23T16:07:47;17.90;69.30
3954;DHT22;1991;48.682;9.030;2022-09-23T16:10:17;17.90;69.60
3954;DHT22;1991;48.682;9.030;2022-09-23T16:12:43;17.80;69.80
3954;DHT22;1991;48.682;9.030;2022-09-23T16:15:19;17.80;70.30
3954;DHT22;1991;48.682;9.030;2022-09-23T16:17:46;17.80;70.50
3954;DHT22;1991;48.682;9.030;2022-09-23T16:20:28;17.70;71.30
3954;DHT22;1991;48.682;9.030;2022-09-23T16:29:26;17.50;72.40
3954;DHT22;1991;48.682;9.030;2022-09-23T16:31:52;17.30;72.90
3954;DHT22;1991;48.682;9.030;2022-09-23T16:34:18;17.20;74.40
3954;DHT22;1991;48.682;9.030;2022-09-23T16:36:44;17.10;74.90
3954;DHT22;1991;48.682;9.030;2022-09-23T16:39:12;16.90;76.00
3954;DHT22;1991;48.682;9.030;2022-09-23T16:41:38;16.90;77.00
3954;DHT22;1991;48.682;9.030;2022-09-23T16:44:05;16.90;77.20
3954;DHT22;1991;48.682;9.030;2022-09-23T16:46:33;16.80;78.00
3954;DHT22;1991;48.682;9.030;2022-09-23T16:48:58;16.70;79.00
3954;DHT22;1991;48.682;9.030;2022-09-23T16:51:27;16.70;79.50
3954;DHT22;1991;48.682;9.030;2022-09-23T16:53:56;16.60;80.20
3954;DHT22;1991;48.682;9.030;2022-09-23T16:56:23;16.50;81.10
3954;DHT22;1991;48.682;9.030;2022-09-23T16:58:50;16.50;81.80
3954;DHT22;1991;48.682;9.030;2022-09-23T17:01:26;16.50;82.70
3954;DHT22;1991;48.682;9.030;2022-09-23T17:04:11;16.30;83.50
3954;DHT22;1991;48.682;9.030;2022-09-23T17:06:45;16.30;84.00
3954;DHT22;1991;48.682;9.030;2022-09-23T17:09:12;16.30;85.00
3954;DHT22;1991;48.682;9.030;2022-09-23T17:11:38;16.20;85.50
3954;DHT22;1991;48.682;9.030;2022-09-23T17:14:04;16.10;86.60
3954;DHT22;1991;48.682;9.030;2022-09-23T17:16:32;16.10;87.70
3954;DHT22;1991;48.682;9.030;2022-09-23T17:18:58;16.00;88.50
3954;DHT22;1991;48.682;9.030;2022-09-23T17:21:26;15.90;89.70
3954;DHT22;1991;48.682;9.030;2022-09-23T17:23:56;15.90;90.80
3954;DHT22;1991;48.682;9.030;2022-09-23T17:26:23;15.80;91.10
3954;DHT22;1991;48.682;9.030;2022-09-23T17:28:50;15.80;91.90
3954;DHT22;1991;48.682;9.030;2022-09-23T17:31:16;15.60;93.00
3954;DHT22;1991;48.682;9.030;2022-09-23T17:33:42;15.70;93.80
3954;DHT22;1991;48.682;9.030;2022-09-23T17:36:10;15.60;94.00
3954;DHT22;1991;48.682;9.030;2022-09-23T17:38:37;15.50;94.60
3954;DHT22;1991;48.682;9.030;2022-09-23T17:41:07;15.50;95.50
3954;DHT22;1991;48.682;9.030;2022-09-23T17:43:33;15.40;96.40
3954;DHT22;1991;48.682;9.030;2022-09-23T17:46:07;15.30;96.70
3954;DHT22;1991;48.682;9.030;2022-09-23T17:48:38;15.20;97.20
3954;DHT22;1991;48.682;9.030;2022-09-23T17:51:17;15.10;97.90
3954;DHT22;1991;48.682;9.030;2022-09-23T17:53:45;15.10;98.60
3954;DHT22;1991;48.682;9.030;2022-09-23T17:56:17;15.00;99.00
3954;DHT22;1991;48.682;9.030;2022-09-23T17:58:43;15.00;99.90
3954;DHT22;1991;48.682;9.030;2022-09-23T18:01:13;14.90;99.90
3954;DHT22;1991;48.682;9.030;2022-09-23T18:03:39;14.80;99.90
3954;DHT22;1991;48.682;9.030;2022-09-23T18:06:20;14.80;99.90
3954;DHT22;1991;48.682;9.030;2022-09-23T18:08:47;14.50;99.90
3954;DHT22;1991;48.682;9.030;2022-09-23T18:11:25;14.40;99.90
3954;DHT22;1991;48.682;9.030;2022-09-23T18:13:56;14.30;99.90
3954;DHT22;1991;48.682;9.030;2022-09-23T18:16:24;14.30;99.90
3954;DHT22;1991;48.682;9.030;2022-09-23T18:18:51;14.30;99.90
3954;DHT22;1991;48.682;9.030;2022-09-23T18:21:17;14.30;99.90
3954;DHT22;1991;48.682;9.030;2022-09-23T18:23:44;14.30;99.90
3954;DHT22;1991;48.682;9.030;2022-09-23T18:26:21;14.30;99.90
3954;DHT22;1991;48.682;9.030;2022-09-23T18:28:48;14.30;99.90
3954;DHT22;1991;48.682;9.030;2022-09-23T18:31:14;14.20;99.90
3954;DHT22;1991;48.682;9.030;2022-09-23T18:33:40;14.30;99.90
3954;DHT22;1991;48.682;9.030;2022-09-23T18:36:06;14.20;99.90
3954;DHT22;1991;48.682;9.030;2022-09-23T18:38:33;14.20;99.90
3954;DHT22;1991;48.682;9.030;2022-09-23T18:40:59;14.30;99.90
3954;DHT22;1991;48.682;9.030;2022-09-23T18:43:27;14.20;99.90
3954;DHT22;1991;48.682;9.030;2022-09-23T18:46:04;14.20;99.90
3954;DHT22;1991;48.682;9.030;2022-09-23T18:48:32;14.20;99.90
3954;DHT22;1991;48.682;9.030;2022-09-23T18:51:18;14.20;99.90
3954;DHT22;1991;48.682;9.030;2022-09-23T18:53:47;14.20;99.90
3954;DHT22;1991;48.682;9.030;2022-09-23T18:56:16;14.10;99.90
3954;DHT22;1991;48.682;9.030;2022-09-23T18:58:46;14.10;99.90
3954;DHT22;1991;48.682;9.030;2022-09-23T19:01:12;14.00;99.90
3954;DHT22;1991;48.682;9.030;2022-09-23T19:03:38;13.90;99.90
3954;DHT22;1991;48.682;9.030;2022-09-23T19:06:13;13.90;99.90
3954;DHT22;1991;48.682;9.030;2022-09-23T19:08:41;13.90;99.90
3954;DHT22;1991;48.682;9.030;2022-09-23T19:11:08;13.90;99.90
3954;DHT22;1991;48.682;9.030;2022-09-23T19:13:35;13.80;99.90